CheckWX is a tool to help pilots better visualize weather data.  It is not intended as a substitute for an official pre-flight weather briefing.

10:22:26 UTC

KSNA TAF
John Wayne-Orange County Airport
Santa Ana, California, USA
KSNA 170901Z 1709/1806 VRB04KT 3SM HZ SCT004 WS015/06020KT TEMPO 1709/1711 1/4SM HZ VV001 FM171800 23007KT P6SM SKC

Nov-17@
09:00 UTC

Nov-17 @ 09:00 UTC

Nov-17@
18:00 UTC

Nov-17 @ 18:00 UTC

KSNA 170901Z 1709/1806 VRB04KT 3SM HZ SCT004 WS015/06020KT
Wind
  • Variable at 4 KTS
Conditions
Haze
Cloud Levels
  • Scattered at 400' AGL

Nov-17@
09:00 UTC

Nov-17 @ 09:00 UTC

Nov-17@
11:00 UTC

Nov-17 @ 11:00 UTC

TEMPO 1709/1711 1/4SM HZ VV001

Temporary

Temporary Changes expected for less than half the time period

Conditions
Haze
Cloud Levels
  • Vertical visibility at 100' AGL

Nov-17@
18:00 UTC

Nov-17 @ 18:00 UTC

Nov-18@
06:00 UTC

Nov-18 @ 06:00 UTC

FM171800 23007KT P6SM SKC

From

From Standard forecast or significant change

Wind
  • 230° at 7 KTS
Cloud Levels
  • Clear skies